createdAt,value
2023-01-12T00:01:27.615Z,7.90
2023-01-12T00:05:29.168Z,7.90
2023-01-12T00:09:30.722Z,7.90
2023-01-12T00:13:32.660Z,7.90
2023-01-12T00:17:34.200Z,7.90
2023-01-12T00:21:43.231Z,7.90
2023-01-12T00:25:49.922Z,7.80
2023-01-12T00:29:51.541Z,7.90
2023-01-12T00:33:53.095Z,7.90
2023-01-12T00:37:54.633Z,7.90
2023-01-12T00:42:14.929Z,7.90
2023-01-12T00:46:16.503Z,7.90
2023-01-12T00:50:19.599Z,7.90
2023-01-12T00:54:21.420Z,7.90
2023-01-12T00:58:22.950Z,7.90
2023-01-12T01:02:24.717Z,7.80
2023-01-12T01:06:26.678Z,7.70
2023-01-12T01:10:28.203Z,7.70
2023-01-12T01:14:29.917Z,7.70
2023-01-12T01:18:31.981Z,7.70
2023-01-12T01:22:33.504Z,7.70
2023-01-12T01:26:35.123Z,7.70
2023-01-12T01:30:36.642Z,7.70
2023-01-12T01:34:38.135Z,7.80
2023-01-12T01:38:39.948Z,7.80
2023-01-12T01:42:41.694Z,7.80
2023-01-12T01:46:54.867Z,7.80
2023-01-12T01:51:02.529Z,7.90
2023-01-12T01:55:10.510Z,7.90
2023-01-12T01:59:18.021Z,7.90
2023-01-12T02:03:19.785Z,7.90
2023-01-12T02:07:21.396Z,7.90
2023-01-12T02:11:49.779Z,7.80
2023-01-12T02:16:14.452Z,7.80
2023-01-12T02:20:35.001Z,7.80
2023-01-12T02:24:51.949Z,7.90
2023-01-12T02:28:53.449Z,7.90
2023-01-12T02:32:54.961Z,7.90
2023-01-12T02:37:08.890Z,7.80
2023-01-12T02:41:16.544Z,8.00
2023-01-12T02:45:21.172Z,8.00
2023-01-12T02:49:24.554Z,8.00
2023-01-12T02:53:44.768Z,8.00
2023-01-12T02:57:46.310Z,8.10
2023-01-12T03:01:49.509Z,8.10
2023-01-12T03:05:51.762Z,8.10
2023-01-12T03:09:55.583Z,8.10
2023-01-12T03:14:00.693Z,8.10
2023-01-12T03:18:25.665Z,8.00
2023-01-12T03:22:27.409Z,8.10
2023-01-12T03:26:29.834Z,8.00
2023-01-12T03:30:38.908Z,8.00
2023-01-12T03:34:40.511Z,8.00
2023-01-12T03:38:45.201Z,8.10
2023-01-12T03:42:55.324Z,8.10
2023-01-12T03:47:03.596Z,8.00
2023-01-12T03:51:09.755Z,8.00
2023-01-12T03:55:12.999Z,7.90
2023-01-12T03:59:14.803Z,8.00
2023-01-12T04:03:16.686Z,8.00
2023-01-12T04:07:18.251Z,7.90
2023-01-12T07:05:39.083Z,8.20
2023-01-12T07:09:56.539Z,8.30
2023-01-12T07:14:10.669Z,8.30
2023-01-12T07:18:12.364Z,8.30
2023-01-12T07:22:14.159Z,8.40
2023-01-12T07:26:15.760Z,8.40
2023-01-12T07:30:18.240Z,8.40
2023-01-12T07:34:19.800Z,8.50
2023-01-12T07:38:21.394Z,8.50
2023-01-12T07:42:25.812Z,8.50
2023-01-12T07:46:27.405Z,8.50
2023-01-12T07:50:29.583Z,8.50
2023-01-12T07:54:31.392Z,8.50
2023-01-12T07:58:33.011Z,8.50
2023-01-12T08:02:34.604Z,8.50
2023-01-12T08:06:36.285Z,8.60
2023-01-12T08:10:38.226Z,8.60
2023-01-12T08:14:40.973Z,8.60
2023-01-12T08:18:49.052Z,8.60
2023-01-12T08:22:52.831Z,8.60
2023-01-12T08:26:55.639Z,8.70
2023-01-12T08:30:57.335Z,8.70
2023-01-12T08:35:01.756Z,8.70
2023-01-12T08:39:04.672Z,8.80
2023-01-12T08:43:06.236Z,8.90
2023-01-12T08:47:15.339Z,8.90
2023-01-12T08:51:16.937Z,9.00
2023-01-12T08:55:18.622Z,9.00
2023-01-12T08:59:20.592Z,9.10
2023-01-12T09:03:22.262Z,9.00
2023-01-12T09:07:23.872Z,9.10
2023-01-12T09:11:25.919Z,9.20
2023-01-12T09:15:27.609Z,9.20
2023-01-12T09:19:29.201Z,9.30
2023-01-12T09:23:30.891Z,9.30
2023-01-12T09:27:32.624Z,9.30
2023-01-12T09:31:37.117Z,9.30
2023-01-12T09:35:39.169Z,9.30
2023-01-12T09:39:40.707Z,9.40
2023-01-12T09:44:01.079Z,9.40
2023-01-12T09:48:03.977Z,9.40
2023-01-12T09:52:10.875Z,9.50
2023-01-12T09:56:23.150Z,9.60
2023-01-12T10:00:24.840Z,9.60
2023-01-12T10:04:26.586Z,9.50
2023-01-12T10:08:28.124Z,9.50
2023-01-12T10:12:41.905Z,9.60
2023-01-12T10:16:52.714Z,9.60
2023-01-12T10:20:55.259Z,9.60
2023-01-12T10:24:56.868Z,9.70
2023-01-12T10:28:59.960Z,9.60
2023-01-12T10:33:18.469Z,9.70
2023-01-12T10:37:20.059Z,9.70
2023-01-12T10:41:22.561Z,9.60
2023-01-12T10:45:24.483Z,9.70
2023-01-12T10:49:26.927Z,9.80
2023-01-12T10:53:30.809Z,9.80
2023-01-12T10:57:33.654Z,10.00
2023-01-12T11:01:51.842Z,10.00
2023-01-12T11:05:53.544Z,10.10
2023-01-12T11:09:57.486Z,10.10
2023-01-12T11:14:03.670Z,10.00
2023-01-12T11:18:27.874Z,10.10
2023-01-12T11:22:32.290Z,10.10
2023-01-12T11:26:52.792Z,10.10
2023-01-12T11:30:57.458Z,10.20
2023-01-12T11:35:03.855Z,10.20
2023-01-12T11:39:08.139Z,10.20
2023-01-12T11:43:37.891Z,10.30
2023-01-12T11:47:41.960Z,10.30
2023-01-12T11:51:44.356Z,10.30
2023-01-12T11:55:51.847Z,10.40
2023-01-12T12:00:12.422Z,10.40
2023-01-12T12:04:32.787Z,10.50
2023-01-12T12:09:00.773Z,10.60
2023-01-12T12:13:08.427Z,10.70
2023-01-12T12:17:23.447Z,10.60
2023-01-12T12:21:37.467Z,10.50
2023-01-12T12:25:42.242Z,10.40
2023-01-12T12:29:55.299Z,10.40
2023-01-12T12:34:15.860Z,10.30
2023-01-12T12:38:39.750Z,10.20
2023-01-12T12:43:06.651Z,10.30
2023-01-12T12:47:23.953Z,10.20
2023-01-12T12:51:26.329Z,10.20
2023-01-12T12:55:27.957Z,10.20
2023-01-12T12:59:32.749Z,10.20
2023-01-12T13:03:40.511Z,10.30
2023-01-12T13:07:43.712Z,10.30
2023-01-12T13:11:56.046Z,10.20
2023-01-12T13:16:17.940Z,10.20
2023-01-12T13:20:25.686Z,10.20
2023-01-12T13:24:38.063Z,10.20
2023-01-12T13:28:39.615Z,10.40
2023-01-12T13:32:43.248Z,10.40
2023-01-12T13:36:44.856Z,10.40
2023-01-12T13:40:56.114Z,10.40
2023-01-12T13:44:58.006Z,10.30
2023-01-12T13:49:00.300Z,10.30
2023-01-12T13:53:02.714Z,10.20
2023-01-12T13:57:10.410Z,10.30
2023-01-12T14:01:35.434Z,10.20
2023-01-12T14:05:59.893Z,10.30
2023-01-12T14:10:20.036Z,10.30
2023-01-12T14:14:51.588Z,10.30
2023-01-12T14:18:53.221Z,10.30
2023-01-12T14:23:14.363Z,10.30
2023-01-12T14:27:16.995Z,10.30
2023-01-12T14:31:36.840Z,10.30
2023-01-12T14:35:43.844Z,10.30
2023-01-12T14:39:46.208Z,10.40
2023-01-12T14:44:06.552Z,10.30
2023-01-12T14:48:30.313Z,10.30
2023-01-12T14:52:32.664Z,10.30
2023-01-12T14:56:39.078Z,10.20
2023-01-12T15:00:43.026Z,10.10
2023-01-12T15:04:50.829Z,10.20
2023-01-12T15:08:57.309Z,10.30
2023-01-12T15:13:12.845Z,10.30
2023-01-12T15:17:33.391Z,10.30
2023-01-12T15:21:54.469Z,10.30
2023-01-12T15:25:56.248Z,10.10
2023-01-12T15:29:57.930Z,10.10
2023-01-12T15:34:00.109Z,10.00
2023-01-12T15:38:02.193Z,10.00
2023-01-12T15:42:21.391Z,10.00
2023-01-12T15:46:23.005Z,10.00
2023-01-12T15:50:24.597Z,9.90
2023-01-12T15:54:26.418Z,9.80
2023-01-12T15:58:28.673Z,9.90
2023-01-12T16:02:35.059Z,9.80
2023-01-12T16:06:37.517Z,9.80
2023-01-12T16:10:59.137Z,9.80
2023-01-12T16:15:00.994Z,9.90
2023-01-12T16:19:06.564Z,10.10
2023-01-12T16:23:08.276Z,10.10
2023-01-12T16:27:09.931Z,10.10
2023-01-12T16:31:12.609Z,10.20
2023-01-12T16:35:15.352Z,10.20
2023-01-12T16:39:17.082Z,10.20
2023-01-12T16:43:21.015Z,10.20
2023-01-12T16:47:24.294Z,10.20
2023-01-12T16:51:25.919Z,10.20
2023-01-12T16:55:27.461Z,10.20
2023-01-12T16:59:28.984Z,10.20
2023-01-12T17:03:30.649Z,10.10
2023-01-12T17:07:32.733Z,10.00
2023-01-12T17:11:35.242Z,10.00
2023-01-12T17:15:37.007Z,10.00
2023-01-12T17:19:39.710Z,10.00
2023-01-12T17:23:42.507Z,10.00
2023-01-12T17:27:44.294Z,10.00
2023-01-12T17:31:46.483Z,10.00
2023-01-12T17:35:48.137Z,10.10
2023-01-12T17:39:49.811Z,10.00
2023-01-12T17:43:51.416Z,10.10
2023-01-12T17:47:53.195Z,10.00
2023-01-12T17:51:54.825Z,10.00
2023-01-12T17:55:56.588Z,9.90
2023-01-12T17:59:58.332Z,10.00
2023-01-12T18:04:00.322Z,10.00
2023-01-12T18:08:01.928Z,10.00
2023-01-12T18:12:04.890Z,10.00
2023-01-12T18:16:07.358Z,10.10
2023-01-12T18:20:09.239Z,10.10
2023-01-12T18:24:10.847Z,10.10
2023-01-12T18:28:12.580Z,10.00
2023-01-12T18:32:14.170Z,10.00
2023-01-12T18:36:16.897Z,10.00
2023-01-12T18:40:18.585Z,10.10
2023-01-12T18:44:20.297Z,10.10
2023-01-12T18:48:23.631Z,10.10
2023-01-12T18:52:44.052Z,10.10
2023-01-12T18:56:47.680Z,10.10
2023-01-12T19:00:50.157Z,10.20
2023-01-12T19:04:51.746Z,10.10
2023-01-12T19:09:12.533Z,10.10
2023-01-12T19:13:32.578Z,10.10
2023-01-12T19:17:34.169Z,10.20
2023-01-12T19:21:54.375Z,10.20
2023-01-12T19:26:18.949Z,10.20
2023-01-12T19:30:20.566Z,10.10
2023-01-12T19:34:24.664Z,10.10
2023-01-12T19:38:26.268Z,10.10
2023-01-12T19:42:46.606Z,10.10
2023-01-12T19:46:48.508Z,10.10
2023-01-12T19:50:50.719Z,10.10
2023-01-12T19:54:52.257Z,9.90
2023-01-12T19:58:54.219Z,9.90
2023-01-12T20:02:55.963Z,9.90
2023-01-12T20:06:57.633Z,9.90
2023-01-12T20:10:59.925Z,9.90
2023-01-12T20:15:01.554Z,9.90
2023-01-12T20:19:04.232Z,9.90
2023-01-12T20:23:05.931Z,10.00
2023-01-12T20:27:07.627Z,10.00
2023-01-12T20:31:13.675Z,10.00
2023-01-12T20:35:17.255Z,10.00
2023-01-12T20:39:18.997Z,10.00
2023-01-12T20:43:20.584Z,9.90
2023-01-12T20:47:22.367Z,9.90
2023-01-12T20:51:24.045Z,9.90
2023-01-12T20:55:25.582Z,9.90
2023-01-12T20:59:27.176Z,9.90
2023-01-12T21:03:29.044Z,9.90
2023-01-12T21:07:31.148Z,9.90
2023-01-12T21:11:32.735Z,9.90
2023-01-12T21:15:34.304Z,9.80
2023-01-12T21:19:35.929Z,9.70
2023-01-12T21:23:37.490Z,9.70
2023-01-12T21:27:39.085Z,9.70
2023-01-12T21:31:40.665Z,9.70
2023-01-12T21:35:42.295Z,9.70
2023-01-12T21:39:43.870Z,9.70
2023-01-12T21:43:49.528Z,9.70
2023-01-12T21:47:51.138Z,9.60
2023-01-12T21:51:52.778Z,9.60
2023-01-12T21:55:56.536Z,9.60
2023-01-12T21:59:58.284Z,9.60
2023-01-12T22:04:00.018Z,9.60
2023-01-12T22:08:02.379Z,9.60
2023-01-12T22:12:04.047Z,9.70
2023-01-12T22:16:06.719Z,9.70
2023-01-12T22:20:09.061Z,9.70
2023-01-12T22:24:10.630Z,9.70
2023-01-12T22:28:12.260Z,9.70
2023-01-12T22:32:13.956Z,9.70
2023-01-12T22:36:15.580Z,9.70
2023-01-12T22:40:17.311Z,9.70
2023-01-12T22:44:19.404Z,9.80
2023-01-12T22:48:20.973Z,9.80
2023-01-12T22:52:22.543Z,9.80
2023-01-12T22:56:24.373Z,9.80
2023-01-12T23:00:26.006Z,9.80
2023-01-12T23:04:27.586Z,9.80
2023-01-12T23:08:29.436Z,9.90
2023-01-12T23:12:30.973Z,9.90
2023-01-12T23:16:33.593Z,9.90
2023-01-12T23:20:36.109Z,9.90
2023-01-12T23:24:38.155Z,10.00
2023-01-12T23:28:43.707Z,10.00
2023-01-12T23:32:45.420Z,9.90
2023-01-12T23:36:47.028Z,9.90
2023-01-12T23:40:48.570Z,9.80
2023-01-12T23:44:50.104Z,9.90
2023-01-12T23:48:52.318Z,9.80
2023-01-12T23:52:53.839Z,9.80
2023-01-12T23:56:55.387Z,9.80
